createdAt,value
2023-05-19T00:01:31.840Z,102125.84
2023-05-19T00:06:37.123Z,102128.06
2023-05-19T00:11:41.678Z,102126.88
2023-05-19T00:16:45.810Z,102124.63
2023-05-19T00:21:49.889Z,102133.78
2023-05-19T00:26:54.132Z,102139.59
2023-05-19T00:31:58.119Z,102141.66
2023-05-19T00:37:02.311Z,102139.13
2023-05-19T00:42:06.529Z,102140.19
2023-05-19T00:47:10.714Z,102144.81
2023-05-19T00:52:14.886Z,102141.06
2023-05-19T00:57:19.038Z,102149.75
2023-05-19T01:02:23.362Z,102144.88
2023-05-19T01:07:29.023Z,102125.03
2023-05-19T01:12:33.119Z,102124.56
2023-05-19T01:18:08.158Z,102136.22
2023-05-19T01:23:24.898Z,102139.88
2023-05-19T01:29:07.597Z,102141.72
2023-05-19T01:34:14.134Z,102141.69
2023-05-19T01:39:18.307Z,102139.56
2023-05-19T01:44:25.193Z,102144.72
2023-05-19T01:49:29.159Z,102147.47
2023-05-19T01:54:33.396Z,102139.47
2023-05-19T01:59:58.688Z,102139.13
2023-05-19T02:05:42.769Z,102138.13
2023-05-19T02:10:52.903Z,102129.91
2023-05-19T02:16:04.996Z,102132.75
2023-05-19T02:21:13.946Z,102129.50
2023-05-19T02:26:17.899Z,102135.81
2023-05-19T02:31:22.221Z,102133.84
2023-05-19T02:36:27.230Z,102131.97
2023-05-19T02:41:32.554Z,102130.72
2023-05-19T02:46:36.896Z,102132.28
2023-05-19T02:51:41.187Z,102139.56
2023-05-19T02:56:45.241Z,102124.66
2023-05-19T03:01:49.306Z,102142.81
2023-05-19T03:06:55.223Z,102134.84
2023-05-19T03:12:05.082Z,102135.69
2023-05-19T03:17:09.032Z,102119.56
2023-05-19T03:22:13.428Z,102115.97
2023-05-19T03:27:17.463Z,102112.66
2023-05-19T03:38:22.277Z,102087.22
2023-05-19T03:43:32.798Z,102096.94
2023-05-19T03:48:42.081Z,102093.25
2023-05-19T04:00:40.403Z,102099.94
2023-05-19T04:06:03.804Z,102095.91
2023-05-19T04:11:09.130Z,102092.97
2023-05-19T04:16:13.381Z,102101.31
2023-05-19T04:21:18.359Z,102101.84
2023-05-19T04:26:23.384Z,102080.63
2023-05-19T04:31:29.496Z,102080.59
2023-05-19T04:36:34.585Z,102071.66
2023-05-19T04:41:40.988Z,102060.91
2023-05-19T04:46:46.205Z,102063.34
2023-05-19T04:51:54.093Z,102058.09
2023-05-19T04:57:05.033Z,102047.59
2023-05-19T05:02:12.861Z,102037.75
2023-05-19T05:07:17.021Z,102039.75
2023-05-19T05:18:58.696Z,102013.00
2023-05-19T05:24:04.345Z,102013.31
2023-05-19T05:29:11.241Z,102012.78
2023-05-19T05:34:16.827Z,101995.97
2023-05-19T05:39:21.408Z,101991.25
2023-05-19T05:44:27.481Z,101991.09
2023-05-19T05:49:33.429Z,101993.75
2023-05-19T05:54:37.858Z,101984.19
2023-05-19T05:59:42.610Z,101979.63
2023-05-19T06:04:46.689Z,101972.31
2023-05-19T06:09:51.224Z,101974.00
2023-05-19T06:14:56.142Z,101965.75
2023-05-19T06:20:26.132Z,101951.78
2023-05-19T06:25:31.230Z,101936.69
2023-05-19T06:30:35.622Z,101947.59
2023-05-19T06:35:51.076Z,101934.88
2023-05-19T06:40:55.536Z,101934.59
2023-05-19T06:45:59.673Z,101925.63
2023-05-19T06:51:03.652Z,101911.66
2023-05-19T06:56:47.183Z,101903.38
2023-05-19T07:01:52.204Z,101905.50
2023-05-19T07:06:56.341Z,101900.19
2023-05-19T07:12:02.248Z,101857.97
2023-05-19T07:17:07.359Z,101884.94
2023-05-19T07:22:14.448Z,101871.84
2023-05-19T07:27:18.507Z,101866.53
2023-05-19T07:32:22.752Z,101857.44
2023-05-19T07:37:27.060Z,101851.69
2023-05-19T07:42:31.372Z,101850.56
2023-05-19T07:47:35.588Z,101850.81
2023-05-19T07:52:39.493Z,101848.47
2023-05-19T07:57:43.510Z,101849.88
2023-05-19T08:02:47.997Z,101841.16
2023-05-19T08:07:52.157Z,101835.38
2023-05-19T08:12:56.480Z,101836.84
2023-05-19T08:18:00.618Z,101831.56
2023-05-19T08:23:04.976Z,101836.59
2023-05-19T08:28:08.968Z,101825.50
2023-05-19T08:33:13.220Z,101825.81
2023-05-19T08:38:17.257Z,101781.25
2023-05-19T08:43:21.997Z,101794.59
2023-05-19T08:48:28.724Z,101808.13
2023-05-19T08:53:39.044Z,101790.00
2023-05-19T08:58:45.068Z,101803.84
2023-05-19T09:03:50.532Z,101791.28
2023-05-19T09:08:54.912Z,101782.72
2023-05-19T09:13:58.839Z,101789.63
2023-05-19T09:19:03.296Z,101786.13
2023-05-19T09:24:09.050Z,101769.19
2023-05-19T09:29:17.930Z,101773.78
2023-05-19T09:34:23.264Z,101763.63
2023-05-19T09:39:29.316Z,101765.81
2023-05-19T09:44:36.859Z,101761.84
2023-05-19T09:49:48.505Z,101759.75
2023-05-19T09:54:52.712Z,101755.56
2023-05-19T09:59:58.516Z,101744.91
2023-05-19T10:05:05.467Z,101744.63
2023-05-19T10:10:13.578Z,101732.38
2023-05-19T10:15:21.419Z,101726.47
2023-05-19T10:20:28.995Z,101741.13
2023-05-19T10:25:35.379Z,101721.81
2023-05-19T10:30:45.965Z,101723.81
2023-05-19T10:36:11.793Z,101722.44
2023-05-19T10:41:36.515Z,101717.91
2023-05-19T10:46:44.290Z,101699.03
2023-05-19T10:51:48.167Z,101703.06
2023-05-19T10:56:57.497Z,101700.28
2023-05-19T11:02:09.255Z,101696.53
2023-05-19T11:07:21.449Z,101697.53
2023-05-19T11:12:25.660Z,101696.00
2023-05-19T11:17:30.542Z,101677.38
2023-05-19T11:22:36.764Z,101667.28
2023-05-19T11:27:41.040Z,101667.97
2023-05-19T11:32:48.507Z,101669.50
2023-05-19T11:37:55.587Z,101655.34
2023-05-19T11:43:02.628Z,101662.19
2023-05-19T11:48:07.783Z,101665.84
2023-05-19T11:53:20.463Z,101658.88
2023-05-19T11:58:28.701Z,101651.03
2023-05-19T12:03:33.822Z,101651.88
2023-05-19T12:08:38.100Z,101646.56
2023-05-19T12:13:42.308Z,101641.94
2023-05-19T12:18:46.415Z,101646.09
2023-05-19T12:23:50.580Z,101643.59
2023-05-19T12:28:54.688Z,101645.69
2023-05-19T12:33:58.663Z,101651.81
2023-05-19T12:39:02.702Z,101649.22
2023-05-19T12:44:16.550Z,101646.81
2023-05-19T12:49:20.591Z,101659.19
2023-05-19T12:54:24.955Z,101637.59
2023-05-19T12:59:38.440Z,101663.50
2023-05-19T13:04:43.310Z,101666.81
2023-05-19T13:09:47.444Z,101672.06
2023-05-19T13:14:52.949Z,101665.81
2023-05-19T13:19:59.986Z,101672.72
2023-05-19T13:25:04.154Z,101636.53
2023-05-19T13:30:08.657Z,101683.44
2023-05-19T13:35:14.453Z,101670.34
2023-05-19T13:40:18.545Z,101686.03
2023-05-19T13:45:24.346Z,101677.09
2023-05-19T13:50:28.411Z,101686.72
2023-05-19T13:55:32.958Z,101683.41
2023-05-19T14:00:37.264Z,101695.41
2023-05-19T14:05:41.292Z,101695.69
2023-05-19T14:10:48.723Z,101698.50
2023-05-19T14:15:52.769Z,101696.84
2023-05-19T14:20:57.038Z,101695.41
2023-05-19T14:32:20.040Z,101696.69
2023-05-19T14:37:24.099Z,101693.75
2023-05-19T14:42:28.043Z,101696.34
2023-05-19T14:47:32.172Z,101700.22
2023-05-19T14:52:36.283Z,101653.72
2023-05-19T14:57:40.383Z,101701.66
2023-05-19T15:02:44.879Z,101695.09
2023-05-19T15:07:48.889Z,101706.72
2023-05-19T15:12:53.074Z,101693.00
2023-05-19T15:17:56.929Z,101695.25
2023-05-19T15:23:01.061Z,101700.91
2023-05-19T15:28:05.547Z,101697.94
2023-05-19T15:33:09.724Z,101691.03
2023-05-19T15:38:13.823Z,101709.81
2023-05-19T15:43:18.331Z,101701.97
2023-05-19T15:48:22.536Z,101697.81
2023-05-19T15:53:27.320Z,101699.53
2023-05-19T15:58:31.346Z,101705.84
2023-05-19T16:03:35.696Z,101703.94
2023-05-19T16:08:39.952Z,101699.25
2023-05-19T16:13:44.250Z,101713.91
2023-05-19T16:18:48.245Z,101710.56
2023-05-19T16:23:52.335Z,101711.28
2023-05-19T16:28:57.481Z,101714.31
2023-05-19T16:34:01.468Z,101700.28
2023-05-19T16:39:05.657Z,101704.41
2023-05-19T16:44:09.538Z,101709.47
2023-05-19T16:49:13.804Z,101714.69
2023-05-19T16:54:17.725Z,101714.09
2023-05-19T16:59:21.757Z,101721.56
2023-05-19T17:04:27.500Z,101708.06
2023-05-19T17:09:32.767Z,101713.28
2023-05-19T17:14:36.932Z,101716.84
2023-05-19T17:19:41.054Z,101707.94
2023-05-19T17:24:45.208Z,101711.28
2023-05-19T17:29:49.264Z,101715.69
2023-05-19T17:34:53.344Z,101716.69
2023-05-19T17:39:57.172Z,101712.59
2023-05-19T17:45:01.618Z,101713.41
2023-05-19T17:50:07.428Z,101721.13
2023-05-19T17:55:12.944Z,101713.88
2023-05-19T18:00:17.368Z,101714.69
2023-05-19T18:05:21.860Z,101710.78
2023-05-19T18:10:28.604Z,101722.31
2023-05-19T18:15:32.635Z,101717.03
2023-05-19T18:20:38.902Z,101706.69
2023-05-19T18:25:51.088Z,101712.16
2023-05-19T18:31:02.469Z,101720.34
2023-05-19T18:36:07.161Z,101710.81
2023-05-19T18:41:11.356Z,101693.22
2023-05-19T18:46:15.581Z,101698.66
2023-05-19T18:51:20.524Z,101706.09
2023-05-19T18:56:28.649Z,101715.06
2023-05-19T19:01:32.615Z,101706.53
2023-05-19T19:06:36.997Z,101700.22
2023-05-19T19:11:41.634Z,101695.84
2023-05-19T19:16:45.949Z,101702.72
2023-05-19T19:21:50.049Z,101699.69
2023-05-19T19:26:54.109Z,101692.06
2023-05-19T19:31:58.040Z,101682.28
2023-05-19T19:37:02.272Z,101688.09
2023-05-19T19:42:06.661Z,101688.47
2023-05-19T19:47:10.882Z,101684.91
2023-05-19T19:52:15.069Z,101686.72
2023-05-19T19:57:19.019Z,101673.84
2023-05-19T20:02:23.358Z,101672.53
2023-05-19T20:07:27.755Z,101689.13
2023-05-19T20:12:32.137Z,101678.13
2023-05-19T20:17:36.410Z,101674.19
2023-05-19T20:22:40.714Z,101683.59
2023-05-19T20:27:44.789Z,101666.41
2023-05-19T20:32:49.222Z,101648.91
2023-05-19T20:37:53.392Z,101644.16
2023-05-19T20:42:57.898Z,101662.34
2023-05-19T20:48:03.670Z,101655.47
2023-05-19T20:53:08.206Z,101641.81
2023-05-19T20:58:12.049Z,101662.72
2023-05-19T21:03:16.479Z,101648.94
2023-05-19T21:08:20.459Z,101652.50
2023-05-19T21:13:24.607Z,101652.78
2023-05-19T21:18:29.356Z,101627.16
2023-05-19T21:23:33.331Z,101658.03
2023-05-19T21:28:37.458Z,101659.38
2023-05-19T21:33:41.270Z,101666.19
2023-05-19T21:38:45.535Z,101661.22
2023-05-19T21:43:49.353Z,101657.22
2023-05-19T21:48:53.436Z,101662.41
2023-05-19T21:53:57.503Z,101667.59
2023-05-19T21:59:01.548Z,101661.63
2023-05-19T22:04:06.231Z,101654.75
2023-05-19T22:09:10.301Z,101664.56
2023-05-19T22:14:14.565Z,101656.16
2023-05-19T22:19:18.714Z,101667.53
2023-05-19T22:24:23.050Z,101666.78
2023-05-19T22:29:27.050Z,101676.47
2023-05-19T22:34:31.048Z,101671.22
2023-05-19T22:39:36.403Z,101667.53
2023-05-19T22:44:40.351Z,101674.78
2023-05-19T22:49:44.453Z,101669.25
2023-05-19T22:54:48.304Z,101662.88
2023-05-19T22:59:52.253Z,101658.91
2023-05-19T23:04:56.502Z,101654.53
2023-05-19T23:10:00.556Z,101663.03
2023-05-19T23:15:06.362Z,101666.97
2023-05-19T23:20:13.487Z,101667.47
2023-05-19T23:25:17.797Z,101676.78
2023-05-19T23:30:21.723Z,101676.16
2023-05-19T23:35:25.810Z,101683.41
2023-05-19T23:40:29.896Z,101685.72
2023-05-19T23:45:34.505Z,101666.94
2023-05-19T23:50:38.839Z,101673.94
2023-05-19T23:55:43.955Z,101674.94
